createdAt,value
2018-03-14T00:00:17.784Z,0
2018-03-14T00:01:17.808Z,0
2018-03-14T00:02:17.540Z,0
2018-03-14T00:03:17.559Z,0
2018-03-14T00:04:17.263Z,0
2018-03-14T00:05:18.149Z,0
2018-03-14T00:06:17.297Z,0
2018-03-14T00:07:18.808Z,0
2018-03-14T00:08:17.926Z,0
2018-03-14T00:09:17.893Z,0
2018-03-14T00:10:17.903Z,0
2018-03-14T00:11:18.212Z,0
2018-03-14T00:12:17.924Z,0
2018-03-14T00:13:17.669Z,0
2018-03-14T00:14:18.361Z,0
2018-03-14T00:15:19.715Z,0
2018-03-14T00:16:17.988Z,0
2018-03-14T00:17:17.979Z,0
2018-03-14T00:18:17.442Z,0
2018-03-14T00:19:17.464Z,0
2018-03-14T00:20:18.373Z,0
2018-03-14T00:21:18.079Z,0
2018-03-14T00:22:17.819Z,0
2018-03-14T00:23:20.042Z,0
2018-03-14T00:24:17.587Z,0
2018-03-14T00:25:18.423Z,0
2018-03-14T00:26:18.403Z,0
2018-03-14T00:27:18.420Z,0
2018-03-14T00:28:18.209Z,0
2018-03-14T00:29:18.737Z,0
2018-03-14T00:30:18.712Z,0
2018-03-14T00:31:19.145Z,0
2018-03-14T00:32:17.962Z,0
2018-03-14T00:33:18.534Z,0
2018-03-14T00:34:17.985Z,0
2018-03-14T00:35:18.313Z,0
2018-03-14T00:36:18.333Z,0
2018-03-14T00:37:18.022Z,0
2018-03-14T00:38:18.924Z,0
2018-03-14T00:39:19.503Z,0
2018-03-14T00:40:18.375Z,0
2018-03-14T00:41:18.647Z,0
2018-03-14T00:42:18.668Z,0
2018-03-14T00:43:18.176Z,0
2018-03-14T00:44:18.690Z,0
2018-03-14T00:45:18.404Z,0
2018-03-14T00:46:19.473Z,0
2018-03-14T00:47:18.444Z,0
2018-03-14T00:48:18.441Z,0
2018-03-14T00:49:17.917Z,0
2018-03-14T00:50:18.747Z,0
2018-03-14T00:51:18.765Z,0
2018-03-14T00:52:18.518Z,0
2018-03-14T00:53:18.793Z,0
2018-03-14T00:54:20.112Z,0
2018-03-14T00:55:18.278Z,0
2018-03-14T00:56:18.026Z,0
2018-03-14T00:57:18.601Z,0
2018-03-14T00:58:18.836Z,0
2018-03-14T00:59:18.376Z,0
2018-03-14T01:00:18.801Z,0
2018-03-14T01:01:18.903Z,0
2018-03-14T01:02:19.997Z,0
2018-03-14T01:03:18.675Z,0
2018-03-14T01:04:18.669Z,0
2018-03-14T01:05:18.440Z,0
2018-03-14T01:06:18.695Z,0
2018-03-14T01:07:18.990Z,0
2018-03-14T01:08:19.010Z,0
2018-03-14T01:09:20.196Z,0
2018-03-14T01:10:18.760Z,0
2018-03-14T01:11:18.780Z,0
2018-03-14T01:12:19.095Z,0
2018-03-14T01:13:18.815Z,0
2018-03-14T01:14:18.828Z,0
2018-03-14T01:15:19.121Z,0
2018-03-14T01:16:19.163Z,0
2018-03-14T01:17:19.967Z,0
2018-03-14T01:18:19.160Z,0
2018-03-14T01:19:18.882Z,0
2018-03-14T01:20:18.636Z,0
2018-03-14T01:21:18.928Z,0
2018-03-14T01:22:19.226Z,0
2018-03-14T01:23:19.009Z,0
2018-03-14T01:24:18.960Z,0
2018-03-14T01:25:21.148Z,0
2018-03-14T01:26:19.007Z,0
2018-03-14T01:27:19.276Z,0
2018-03-14T01:28:18.761Z,0
2018-03-14T01:29:18.496Z,0
2018-03-14T01:30:19.080Z,0
2018-03-14T01:31:18.842Z,0
2018-03-14T01:32:19.232Z,0
2018-03-14T01:33:19.522Z,0
2018-03-14T01:34:19.096Z,0
2018-03-14T01:35:19.148Z,0
2018-03-14T01:36:19.136Z,0
2018-03-14T01:37:19.194Z,0
2018-03-14T01:38:19.188Z,0
2018-03-14T01:39:19.588Z,0
2018-03-14T01:40:19.217Z,0
2018-03-14T01:41:20.883Z,0
2018-03-14T01:42:18.959Z,0
2018-03-14T01:43:18.981Z,0
2018-03-14T01:44:19.286Z,0
2018-03-14T01:45:19.551Z,0
2018-03-14T01:46:19.038Z,0
2018-03-14T01:47:19.006Z,0
2018-03-14T01:48:20.582Z,0
2018-03-14T01:49:21.072Z,0
2018-03-14T01:50:19.327Z,0
2018-03-14T01:51:19.704Z,0
2018-03-14T01:52:19.086Z,0
2018-03-14T01:53:19.098Z,0
2018-03-14T01:54:19.401Z,0
2018-03-14T01:55:19.405Z,0
2018-03-14T01:56:20.595Z,0
2018-03-14T01:57:19.159Z,0
2018-03-14T01:58:19.171Z,0
2018-03-14T01:59:19.458Z,0
2018-03-14T02:00:18.670Z,0
2018-03-14T02:01:19.251Z,0
2018-03-14T02:02:19.521Z,0
2018-03-14T02:03:19.542Z,0
2018-03-14T02:04:20.390Z,0
2018-03-14T02:05:19.284Z,0
2018-03-14T02:06:19.566Z,0
2018-03-14T02:07:19.580Z,0
2018-03-14T02:08:19.863Z,0
2018-03-14T02:09:19.652Z,0
2018-03-14T02:10:19.895Z,0
2018-03-14T02:11:20.459Z,0
2018-03-14T02:12:19.673Z,0
2018-03-14T02:13:19.403Z,0
2018-03-14T02:14:19.947Z,0
2018-03-14T02:15:19.689Z,0
2018-03-14T02:16:19.967Z,0
2018-03-14T02:17:18.904Z,0
2018-03-14T02:18:19.742Z,0
2018-03-14T02:19:21.452Z,0
2018-03-14T02:20:19.553Z,0
2018-03-14T02:21:19.773Z,0
2018-03-14T02:22:19.780Z,0
2018-03-14T02:23:20.081Z,0
2018-03-14T02:24:19.814Z,0
2018-03-14T02:25:19.836Z,0
2018-03-14T02:26:19.558Z,0
2018-03-14T02:27:21.043Z,0
2018-03-14T02:28:19.886Z,0
2018-03-14T02:29:19.864Z,0
2018-03-14T02:30:20.196Z,0
2018-03-14T02:31:19.965Z,0
2018-03-14T02:32:19.904Z,0
2018-03-14T02:33:20.211Z,0
2018-03-14T02:34:20.586Z,0
2018-03-14T02:35:21.689Z,0
2018-03-14T02:36:19.969Z,0
2018-03-14T02:37:20.257Z,0
2018-03-14T02:38:19.729Z,0
2018-03-14T02:39:20.022Z,0
2018-03-14T02:40:20.040Z,0
2018-03-14T02:41:20.042Z,0
2018-03-14T02:42:20.096Z,0
2018-03-14T02:43:21.068Z,0
2018-03-14T02:44:20.369Z,0
2018-03-14T02:45:20.069Z,0
2018-03-14T02:46:19.834Z,0
2018-03-14T02:47:19.587Z,0
2018-03-14T02:48:19.603Z,0
2018-03-14T02:49:20.376Z,0
2018-03-14T02:50:20.138Z,0
2018-03-14T02:51:20.407Z,0
2018-03-14T02:52:20.212Z,0
2018-03-14T02:53:20.452Z,0
2018-03-14T02:54:20.198Z,0
2018-03-14T02:55:20.478Z,0
2018-03-14T02:56:20.489Z,0
2018-03-14T02:57:20.246Z,0
2018-03-14T02:58:20.503Z,0
2018-03-14T02:59:20.520Z,0
2018-03-14T03:00:20.543Z,0
2018-03-14T03:01:20.040Z,0
2018-03-14T03:02:20.056Z,0
2018-03-14T03:03:20.063Z,0
2018-03-14T03:04:20.331Z,0
2018-03-14T03:05:20.361Z,0
2018-03-14T03:06:20.107Z,0
2018-03-14T03:07:20.629Z,0
2018-03-14T03:08:20.658Z,0
2018-03-14T03:09:20.162Z,0
2018-03-14T03:10:20.683Z,0
2018-03-14T03:11:20.492Z,0
2018-03-14T03:12:20.466Z,0
2018-03-14T03:13:20.731Z,0
2018-03-14T03:14:20.735Z,0
2018-03-14T03:15:20.750Z,0
2018-03-14T03:16:20.295Z,0
2018-03-14T03:17:20.018Z,0
2018-03-14T03:18:20.794Z,0
2018-03-14T03:19:20.810Z,0
2018-03-14T03:20:20.835Z,0
2018-03-14T03:21:20.843Z,0
2018-03-14T03:22:20.595Z,0
2018-03-14T03:23:20.614Z,0
2018-03-14T03:24:20.712Z,0
2018-03-14T03:25:20.656Z,0
2018-03-14T03:26:20.712Z,0
2018-03-14T03:27:20.716Z,0
2018-03-14T03:28:20.741Z,0
2018-03-14T03:29:20.695Z,0
2018-03-14T03:30:20.786Z,0
2018-03-14T03:31:20.733Z,0
2018-03-14T03:32:20.735Z,0
2018-03-14T03:33:21.007Z,0
2018-03-14T03:34:21.032Z,0
2018-03-14T03:35:21.024Z,0
2018-03-14T03:36:20.787Z,0
2018-03-14T03:37:20.800Z,0
2018-03-14T03:38:21.081Z,0
2018-03-14T03:39:20.584Z,0
2018-03-14T03:40:21.096Z,0
2018-03-14T03:41:20.608Z,0
2018-03-14T03:42:20.410Z,0
2018-03-14T03:43:20.897Z,0
2018-03-14T03:44:20.902Z,0
2018-03-14T03:45:20.911Z,0
2018-03-14T03:46:21.181Z,0
2018-03-14T03:47:20.698Z,0
2018-03-14T03:48:20.700Z,0
2018-03-14T03:49:20.716Z,0
2018-03-14T03:50:20.472Z,0
2018-03-14T03:51:20.738Z,0
2018-03-14T03:52:21.225Z,0
2018-03-14T03:53:20.744Z,0
2018-03-14T03:54:21.002Z,0
2018-03-14T03:55:20.772Z,0
2018-03-14T03:56:21.292Z,0
2018-03-14T03:57:21.093Z,0
2018-03-14T03:58:20.559Z,0
2018-03-14T03:59:21.096Z,0
2018-03-14T04:00:20.336Z,0
2018-03-14T04:01:21.350Z,0
2018-03-14T04:02:21.120Z,0
2018-03-14T04:03:21.388Z,0
2018-03-14T04:04:21.225Z,0
2018-03-14T04:05:21.190Z,0
2018-03-14T04:06:20.956Z,0
2018-03-14T04:07:21.230Z,0
2018-03-14T04:08:21.489Z,0
2018-03-14T04:09:21.500Z,0
2018-03-14T04:10:21.514Z,0
2018-03-14T04:11:21.022Z,0
2018-03-14T04:12:21.312Z,0
2018-03-14T04:13:22.609Z,0
2018-03-14T04:14:21.585Z,0
2018-03-14T04:15:21.076Z,0
2018-03-14T04:16:21.349Z,0
2018-03-14T04:17:21.128Z,0
2018-03-14T04:18:21.629Z,0
2018-03-14T04:19:21.384Z,0
2018-03-14T04:20:21.422Z,0
2018-03-14T04:21:21.163Z,0
2018-03-14T04:22:21.696Z,0
2018-03-14T04:23:21.449Z,0
2018-03-14T04:24:21.462Z,0
2018-03-14T04:25:21.218Z,0
2018-03-14T04:26:21.748Z,0
2018-03-14T04:27:21.248Z,0
2018-03-14T04:28:21.013Z,0
2018-03-14T04:29:21.539Z,0
2018-03-14T04:30:21.302Z,0
2018-03-14T04:31:21.563Z,0
2018-03-14T04:32:21.825Z,0
2018-03-14T04:33:21.893Z,0
2018-03-14T04:34:21.602Z,0
2018-03-14T04:35:21.620Z,0
2018-03-14T04:36:21.892Z,0
2018-03-14T04:37:21.910Z,0
2018-03-14T04:38:21.658Z,0
2018-03-14T04:39:21.929Z,0
2018-03-14T04:40:21.695Z,0
2018-03-14T04:41:21.723Z,0
2018-03-14T04:42:21.728Z,0
2018-03-14T04:43:21.986Z,0
2018-03-14T04:44:21.724Z,0
2018-03-14T04:45:21.742Z,0
2018-03-14T04:46:21.784Z,0
2018-03-14T04:47:21.366Z,0
2018-03-14T04:48:21.787Z,0
2018-03-14T04:49:21.802Z,0
2018-03-14T04:50:22.066Z,0
2018-03-14T04:51:21.575Z,0
2018-03-14T04:52:21.657Z,0
2018-03-14T04:53:21.606Z,0
2018-03-14T04:54:21.868Z,0
2018-03-14T04:55:21.878Z,0
2018-03-14T04:56:21.658Z,0
2018-03-14T04:57:22.166Z,0
2018-03-14T04:58:21.923Z,0
2018-03-14T04:59:21.704Z,0
2018-03-14T05:00:21.984Z,0
2018-03-14T05:01:21.736Z,0
2018-03-14T05:02:22.129Z,0
2018-03-14T05:03:22.022Z,0
2018-03-14T05:04:22.287Z,0
2018-03-14T05:05:22.311Z,0
2018-03-14T05:06:21.821Z,0
2018-03-14T05:07:22.133Z,0
2018-03-14T05:08:22.351Z,0
2018-03-14T05:09:22.358Z,0
2018-03-14T05:10:22.149Z,0
2018-03-14T05:11:22.389Z,0
2018-03-14T05:12:21.898Z,0
2018-03-14T05:13:22.418Z,0
2018-03-14T05:14:22.596Z,0
2018-03-14T05:15:21.932Z,0
2018-03-14T05:16:22.214Z,0
2018-03-14T05:17:22.225Z,0
2018-03-14T05:18:22.229Z,0
2018-03-14T05:19:21.991Z,0
2018-03-14T05:20:22.004Z,0
2018-03-14T05:21:21.771Z,0
2018-03-14T05:22:22.365Z,0
2018-03-14T05:23:22.321Z,0
2018-03-14T05:24:22.590Z,0
2018-03-14T05:25:22.591Z,0
2018-03-14T05:26:22.102Z,0
2018-03-14T05:27:22.368Z,0
2018-03-14T05:28:22.121Z,0
2018-03-14T05:29:22.393Z,0
2018-03-14T05:30:22.663Z,0
2018-03-14T05:31:22.675Z,0
2018-03-14T05:32:22.693Z,0
2018-03-14T05:33:22.710Z,0
2018-03-14T05:34:21.956Z,0
2018-03-14T05:35:21.972Z,5
2018-03-14T05:36:22.242Z,5
2018-03-14T05:37:22.514Z,5
2018-03-14T05:38:22.015Z,5
2018-03-14T05:39:22.030Z,5
2018-03-14T05:40:22.557Z,5
2018-03-14T05:41:22.609Z,5
2018-03-14T05:42:22.823Z,5
2018-03-14T05:43:22.886Z,5
2018-03-14T05:44:22.618Z,5
2018-03-14T05:45:22.615Z,5
2018-03-14T05:46:21.869Z,5
2018-03-14T05:47:22.643Z,5
2018-03-14T05:48:21.900Z,5
2018-03-14T05:49:22.935Z,5
2018-03-14T05:50:22.182Z,5
2018-03-14T05:51:22.953Z,10
2018-03-14T05:52:22.973Z,10
2018-03-14T05:53:22.745Z,10
2018-03-14T05:54:23.005Z,10
2018-03-14T05:55:22.763Z,10
2018-03-14T05:56:22.529Z,15
2018-03-14T05:57:23.048Z,15
2018-03-14T05:58:23.114Z,15
2018-03-14T05:59:23.069Z,15
2018-03-14T06:00:22.839Z,20
2018-03-14T06:01:22.860Z,20
2018-03-14T06:02:23.126Z,20
2018-03-14T06:03:22.883Z,20
2018-03-14T06:04:23.154Z,25
2018-03-14T06:05:22.988Z,25
2018-03-14T06:06:22.933Z,30
2018-03-14T06:07:22.432Z,30
2018-03-14T06:08:22.968Z,25
2018-03-14T06:09:22.713Z,25
2018-03-14T06:10:22.985Z,25
2018-03-14T06:11:22.741Z,25
2018-03-14T06:12:23.272Z,25
2018-03-14T06:13:23.293Z,20
2018-03-14T06:14:23.059Z,15
2018-03-14T06:15:23.058Z,20
2018-03-14T06:16:23.134Z,20
2018-03-14T06:17:23.089Z,20
2018-03-14T06:18:23.344Z,20
2018-03-14T06:19:22.853Z,25
2018-03-14T06:20:22.870Z,20
2018-03-14T06:21:23.395Z,20
2018-03-14T06:22:23.410Z,20
2018-03-14T06:23:23.421Z,20
2018-03-14T06:24:22.922Z,25
2018-03-14T06:25:23.205Z,25
2018-03-14T06:26:23.468Z,25
2018-03-14T06:27:23.487Z,25
2018-03-14T06:28:23.237Z,25
2018-03-14T06:29:23.510Z,25
2018-03-14T06:30:22.755Z,25
2018-03-14T06:31:23.535Z,30
2018-03-14T06:32:23.599Z,30
2018-03-14T06:33:22.801Z,30
2018-03-14T06:34:23.573Z,35
2018-03-14T06:35:23.606Z,35
2018-03-14T06:36:23.098Z,35
2018-03-14T06:37:23.622Z,35
2018-03-14T06:38:23.628Z,35
2018-03-14T06:39:23.386Z,35
2018-03-14T06:40:23.157Z,35
2018-03-14T06:41:23.418Z,35
2018-03-14T06:42:23.700Z,35
2018-03-14T06:43:23.720Z,35
2018-03-14T06:44:23.217Z,35
2018-03-14T06:45:23.735Z,40
2018-03-14T06:46:23.296Z,40
2018-03-14T06:47:23.846Z,40
2018-03-14T06:48:23.280Z,45
2018-03-14T06:49:23.790Z,45
2018-03-14T06:50:23.814Z,45
2018-03-14T06:51:23.571Z,40
2018-03-14T06:52:23.330Z,40
2018-03-14T06:53:23.339Z,35
2018-03-14T06:54:23.355Z,35
2018-03-14T06:55:23.367Z,30
2018-03-14T06:56:23.648Z,30
2018-03-14T06:57:23.908Z,30
2018-03-14T06:58:23.925Z,30
2018-03-14T06:59:23.427Z,30
2018-03-14T07:00:23.954Z,30
2018-03-14T07:01:23.969Z,35
2018-03-14T07:02:23.776Z,30
2018-03-14T07:03:23.738Z,30
2018-03-14T07:04:23.766Z,30
2018-03-14T07:05:24.024Z,30
2018-03-14T07:06:23.791Z,30
2018-03-14T07:07:23.792Z,25
2018-03-14T07:08:23.805Z,25
2018-03-14T07:09:23.825Z,25
2018-03-14T07:10:23.588Z,25
2018-03-14T07:11:23.598Z,25
2018-03-14T07:12:24.128Z,25
2018-03-14T07:13:23.899Z,25
2018-03-14T07:14:23.902Z,25
2018-03-14T07:15:23.652Z,25
2018-03-14T07:16:23.643Z,25
2018-03-14T07:17:23.923Z,25
2018-03-14T07:18:24.184Z,30
2018-03-14T07:19:23.699Z,30
2018-03-14T07:20:24.265Z,30
2018-03-14T07:21:24.217Z,30
2018-03-14T07:22:23.999Z,30
2018-03-14T07:23:24.043Z,35
2018-03-14T07:24:24.286Z,40
2018-03-14T07:25:24.059Z,40
2018-03-14T07:26:24.065Z,35
2018-03-14T07:27:24.098Z,35
2018-03-14T07:28:24.360Z,35
2018-03-14T07:29:24.365Z,30
2018-03-14T07:30:24.389Z,30
2018-03-14T07:31:24.134Z,30
2018-03-14T07:32:24.143Z,30
2018-03-14T07:33:24.164Z,25
2018-03-14T07:34:23.924Z,20
2018-03-14T07:35:23.940Z,20
2018-03-14T07:36:24.568Z,20
2018-03-14T07:37:24.233Z,25
2018-03-14T07:38:23.949Z,30
2018-03-14T07:39:23.995Z,30
2018-03-14T07:40:24.270Z,25
2018-03-14T07:41:24.278Z,20
2018-03-14T07:42:24.044Z,20
2018-03-14T07:43:24.056Z,20
2018-03-14T07:44:24.070Z,25
2018-03-14T07:45:24.598Z,25
2018-03-14T07:46:24.349Z,25
2018-03-14T07:47:24.383Z,20
2018-03-14T07:48:24.644Z,20
2018-03-14T07:49:24.414Z,20
2018-03-14T07:50:24.411Z,20
2018-03-14T07:51:24.420Z,20
2018-03-14T07:52:24.241Z,20
2018-03-14T07:53:24.454Z,20
2018-03-14T07:54:24.228Z,25
2018-03-14T07:55:24.506Z,30
2018-03-14T07:56:24.246Z,25
2018-03-14T07:57:24.508Z,30
2018-03-14T07:58:24.525Z,30
2018-03-14T07:59:24.566Z,30
2018-03-14T08:00:24.819Z,25
2018-03-14T08:01:24.296Z,25
2018-03-14T08:02:24.815Z,20
2018-03-14T08:03:24.572Z,25
2018-03-14T08:04:24.331Z,30
2018-03-14T08:05:24.346Z,35
2018-03-14T08:06:24.617Z,40
2018-03-14T08:07:24.376Z,50
2018-03-14T08:08:24.955Z,65
2018-03-14T08:09:24.173Z,70
2018-03-14T08:10:24.967Z,70
2018-03-14T08:11:24.209Z,65
2018-03-14T08:12:25.001Z,55
2018-03-14T08:13:25.199Z,50
2018-03-14T08:14:25.026Z,50
2018-03-14T08:15:24.519Z,60
2018-03-14T08:16:25.069Z,80
2018-03-14T08:17:25.077Z,85
2018-03-14T08:18:24.824Z,80
2018-03-14T08:19:24.584Z,80
2018-03-14T08:20:24.634Z,75
2018-03-14T08:21:25.286Z,75
2018-03-14T08:22:24.886Z,80
2018-03-14T08:23:24.951Z,100
2018-03-14T08:24:24.755Z,125
2018-03-14T08:25:24.921Z,130
2018-03-14T08:26:25.193Z,115
2018-03-14T08:27:24.695Z,85
2018-03-14T08:28:24.980Z,70
2018-03-14T08:29:24.480Z,65
2018-03-14T08:30:25.044Z,60
2018-03-14T08:31:24.791Z,60
2018-03-14T08:32:25.030Z,65
2018-03-14T08:33:25.061Z,75
2018-03-14T08:34:25.152Z,80
2018-03-14T08:35:24.827Z,75
2018-03-14T08:36:24.583Z,75
2018-03-14T08:37:25.176Z,90
2018-03-14T08:38:25.123Z,105
2018-03-14T08:39:25.340Z,110
2018-03-14T08:40:25.417Z,110
2018-03-14T08:41:25.164Z,110
2018-03-14T08:42:25.180Z,105
2018-03-14T08:43:24.943Z,95
2018-03-14T08:44:25.469Z,85
2018-03-14T08:45:25.243Z,75
2018-03-14T08:46:25.238Z,70
2018-03-14T08:47:25.003Z,75
2018-03-14T08:48:25.501Z,80
2018-03-14T08:49:25.559Z,75
2018-03-14T08:50:25.685Z,65
2018-03-14T08:51:25.060Z,60
2018-03-14T08:52:25.075Z,60
2018-03-14T08:53:25.085Z,55
2018-03-14T08:54:25.823Z,55
2018-03-14T08:55:25.376Z,60
2018-03-14T08:56:25.127Z,60
2018-03-14T08:57:25.396Z,75
2018-03-14T08:58:25.158Z,80
2018-03-14T08:59:25.680Z,80
2018-03-14T09:00:25.470Z,75
2018-03-14T09:01:25.461Z,80
2018-03-14T09:02:25.478Z,80
2018-03-14T09:03:25.760Z,80
2018-03-14T09:04:25.554Z,85
2018-03-14T09:05:25.273Z,100
2018-03-14T09:06:25.286Z,120
2018-03-14T09:07:25.680Z,130
2018-03-14T09:08:25.822Z,120
2018-03-14T09:09:25.882Z,95
2018-03-14T09:10:25.601Z,80
2018-03-14T09:11:25.612Z,85
2018-03-14T09:12:25.623Z,110
2018-03-14T09:13:25.638Z,150
2018-03-14T09:14:25.921Z,160
2018-03-14T09:15:25.417Z,165
2018-03-14T09:16:25.943Z,145
2018-03-14T09:17:25.706Z,140
2018-03-14T09:18:25.716Z,160
2018-03-14T09:19:25.516Z,200
2018-03-14T09:20:25.758Z,215
2018-03-14T09:21:25.582Z,210
2018-03-14T09:22:25.773Z,205
2018-03-14T09:23:25.781Z,195
2018-03-14T09:24:25.843Z,185
2018-03-14T09:25:25.875Z,220
2018-03-14T09:26:25.583Z,270
2018-03-14T09:27:25.595Z,300
2018-03-14T09:28:25.863Z,275
2018-03-14T09:29:26.217Z,240
2018-03-14T09:30:26.155Z,205
2018-03-14T09:31:26.172Z,190
2018-03-14T09:32:25.683Z,200
2018-03-14T09:33:26.277Z,215
2018-03-14T09:34:25.965Z,220
2018-03-14T09:35:25.975Z,225
2018-03-14T09:36:25.767Z,210
2018-03-14T09:37:26.263Z,185
2018-03-14T09:38:25.773Z,160
2018-03-14T09:39:26.057Z,150
2018-03-14T09:40:26.056Z,140
2018-03-14T09:41:26.327Z,160
2018-03-14T09:42:26.343Z,165
2018-03-14T09:43:25.857Z,175
2018-03-14T09:44:26.528Z,195
2018-03-14T09:45:25.968Z,205
2018-03-14T09:46:25.902Z,210
2018-03-14T09:47:26.498Z,220
2018-03-14T09:48:25.931Z,220
2018-03-14T09:49:26.464Z,230
2018-03-14T09:50:26.219Z,260
2018-03-14T09:51:26.575Z,275
2018-03-14T09:52:26.287Z,275
2018-03-14T09:53:26.019Z,260
2018-03-14T09:54:26.550Z,230
2018-03-14T09:55:26.054Z,220
2018-03-14T09:56:26.594Z,215
2018-03-14T09:57:25.836Z,175
2018-03-14T09:58:26.126Z,130
2018-03-14T09:59:26.378Z,100
2018-03-14T10:00:26.396Z,90
2018-03-14T10:01:26.161Z,90
2018-03-14T10:02:26.401Z,100
2018-03-14T10:03:26.701Z,115
2018-03-14T10:04:26.485Z,120
2018-03-14T10:05:26.461Z,120
2018-03-14T10:06:26.730Z,115
2018-03-14T10:07:26.484Z,115
2018-03-14T10:08:26.510Z,125
2018-03-14T10:09:26.412Z,125
2018-03-14T10:10:26.559Z,125
2018-03-14T10:11:26.842Z,110
2018-03-14T10:12:26.600Z,95
2018-03-14T10:13:26.608Z,90
2018-03-14T10:14:26.890Z,90
2018-03-14T10:15:26.636Z,90
2018-03-14T10:16:26.649Z,90
2018-03-14T10:17:26.676Z,95
2018-03-14T10:18:26.962Z,125
2018-03-14T10:19:27.067Z,150
2018-03-14T10:20:26.992Z,165
2018-03-14T10:21:27.002Z,165
2018-03-14T10:22:26.908Z,150
2018-03-14T10:23:27.034Z,145
2018-03-14T10:24:26.795Z,150
2018-03-14T10:25:26.334Z,150
2018-03-14T10:26:26.589Z,150
2018-03-14T10:27:26.337Z,140
2018-03-14T10:28:26.873Z,135
2018-03-14T10:29:26.413Z,135
2018-03-14T10:30:26.892Z,135
2018-03-14T10:31:26.654Z,140
2018-03-14T10:32:26.917Z,145
2018-03-14T10:33:26.463Z,155
2018-03-14T10:34:27.267Z,155
2018-03-14T10:35:27.394Z,145
2018-03-14T10:36:27.241Z,150
2018-03-14T10:37:27.009Z,155
2018-03-14T10:38:26.774Z,175
2018-03-14T10:39:26.784Z,190
2018-03-14T10:40:27.060Z,165
2018-03-14T10:41:27.102Z,150
2018-03-14T10:42:27.151Z,155
2018-03-14T10:43:26.854Z,175
2018-03-14T10:44:27.390Z,215
2018-03-14T10:45:27.495Z,235
2018-03-14T10:46:27.412Z,250
2018-03-14T10:47:27.430Z,285
2018-03-14T10:48:27.450Z,295
2018-03-14T10:49:27.603Z,295
2018-03-14T10:50:27.238Z,305
2018-03-14T10:51:27.489Z,305
2018-03-14T10:52:27.251Z,285
2018-03-14T10:53:27.281Z,230
2018-03-14T10:54:27.594Z,200
2018-03-14T10:55:27.340Z,205
2018-03-14T10:56:27.067Z,250
2018-03-14T10:57:27.347Z,295
2018-03-14T10:58:27.353Z,365
2018-03-14T10:59:27.359Z,440
2018-03-14T11:00:27.397Z,580
2018-03-14T11:01:27.652Z,520
2018-03-14T11:02:27.170Z,440
2018-03-14T11:03:27.442Z,455
2018-03-14T11:04:27.457Z,530
2018-03-14T11:05:27.501Z,445
2018-03-14T11:06:27.502Z,390
2018-03-14T11:07:27.781Z,395
2018-03-14T11:08:27.535Z,450
2018-03-14T11:09:27.605Z,520
2018-03-14T11:10:27.826Z,675
2018-03-14T11:11:27.332Z,700
2018-03-14T11:12:27.863Z,510
2018-03-14T11:13:27.638Z,635
2018-03-14T11:14:27.644Z,850
2018-03-14T11:15:27.668Z,565
2018-03-14T11:16:27.681Z,470
2018-03-14T11:17:27.699Z,520
2018-03-14T11:18:27.735Z,625
2018-03-14T11:19:27.742Z,1000
2018-03-14T11:20:27.878Z,1120
2018-03-14T11:21:27.790Z,495
2018-03-14T11:22:28.057Z,385
2018-03-14T11:23:27.564Z,385
2018-03-14T11:24:27.835Z,400
2018-03-14T11:25:27.907Z,450
2018-03-14T11:26:27.626Z,345
2018-03-14T11:27:27.911Z,320
2018-03-14T11:28:28.182Z,305
2018-03-14T11:29:28.205Z,315
2018-03-14T11:30:27.963Z,355
2018-03-14T11:31:27.746Z,365
2018-03-14T11:32:28.261Z,380
2018-03-14T11:33:28.023Z,425
2018-03-14T11:34:27.792Z,445
2018-03-14T11:35:28.330Z,285
2018-03-14T11:36:28.340Z,250
2018-03-14T11:37:28.101Z,230
2018-03-14T11:38:28.381Z,210
2018-03-14T11:39:28.165Z,190
2018-03-14T11:40:28.436Z,195
2018-03-14T11:41:28.438Z,235
2018-03-14T11:42:28.622Z,305
2018-03-14T11:43:28.480Z,390
2018-03-14T11:44:28.524Z,560
2018-03-14T11:45:28.285Z,1985
2018-03-14T11:46:28.015Z,1965
2018-03-14T11:47:28.029Z,1985
2018-03-14T11:48:28.287Z,2045
2018-03-14T11:49:28.560Z,2090
2018-03-14T11:50:28.334Z,2070
2018-03-14T11:51:28.667Z,2095
2018-03-14T11:52:28.409Z,1000
2018-03-14T11:53:28.433Z,1635
2018-03-14T11:54:28.220Z,570
2018-03-14T11:55:28.491Z,475
2018-03-14T11:56:28.508Z,445
2018-03-14T11:57:28.612Z,420
2018-03-14T11:58:28.561Z,400
2018-03-14T11:59:28.787Z,380
2018-03-14T12:00:28.312Z,375
2018-03-14T12:01:28.852Z,370
2018-03-14T12:02:28.659Z,390
2018-03-14T12:03:28.519Z,450
2018-03-14T12:04:27.930Z,465
2018-03-14T12:05:28.977Z,525
2018-03-14T12:06:28.497Z,735
2018-03-14T12:07:29.146Z,2275
2018-03-14T12:08:29.071Z,2240
2018-03-14T12:09:28.871Z,2170
2018-03-14T12:10:28.881Z,2035
2018-03-14T12:11:28.612Z,2065
2018-03-14T12:12:28.929Z,2215
2018-03-14T12:13:28.964Z,2360
2018-03-14T12:14:28.950Z,2245
2018-03-14T12:15:28.712Z,2190
2018-03-14T12:16:29.009Z,2205
2018-03-14T12:17:29.273Z,2435
2018-03-14T12:18:28.767Z,2450
2018-03-14T12:19:28.534Z,1835
2018-03-14T12:20:29.338Z,615
2018-03-14T12:21:28.884Z,625
2018-03-14T12:22:29.394Z,705
2018-03-14T12:23:29.167Z,490
2018-03-14T12:24:28.947Z,485
2018-03-14T12:25:29.473Z,500
2018-03-14T12:26:29.293Z,765
2018-03-14T12:27:29.038Z,795
2018-03-14T12:28:29.047Z,2125
2018-03-14T12:29:29.121Z,2280
2018-03-14T12:30:29.356Z,790
2018-03-14T12:31:29.630Z,1485
2018-03-14T12:32:29.402Z,765
2018-03-14T12:33:29.565Z,665
2018-03-14T12:34:29.460Z,920
2018-03-14T12:35:29.673Z,2525
2018-03-14T12:36:29.235Z,630
2018-03-14T12:37:29.512Z,550
2018-03-14T12:38:29.588Z,810
2018-03-14T12:39:28.810Z,605
2018-03-14T12:40:29.592Z,2170
2018-03-14T12:41:29.144Z,2280
2018-03-14T12:42:29.954Z,2795
2018-03-14T12:43:29.953Z,1320
2018-03-14T12:44:29.780Z,685
2018-03-14T12:45:29.495Z,665
2018-03-14T12:46:29.789Z,1395
2018-03-14T12:47:29.804Z,545
2018-03-14T12:48:30.092Z,735
2018-03-14T12:49:29.873Z,970
2018-03-14T12:50:29.477Z,1005
2018-03-14T12:51:29.657Z,745
2018-03-14T12:52:29.935Z,890
2018-03-14T12:53:29.449Z,1235
2018-03-14T12:54:30.005Z,1075
2018-03-14T12:55:30.211Z,830
2018-03-14T12:56:30.311Z,635
2018-03-14T12:57:29.558Z,755
2018-03-14T12:58:30.069Z,515
2018-03-14T12:59:30.122Z,455
2018-03-14T13:00:29.894Z,455
2018-03-14T13:01:30.169Z,615
2018-03-14T13:02:30.537Z,680
2018-03-14T13:03:30.521Z,495
2018-03-14T13:04:30.250Z,440
2018-03-14T13:05:30.017Z,405
2018-03-14T13:06:30.037Z,485
2018-03-14T13:07:30.336Z,510
2018-03-14T13:08:30.591Z,2860
2018-03-14T13:09:30.642Z,2725
2018-03-14T13:10:30.646Z,2675
2018-03-14T13:11:30.461Z,2675
2018-03-14T13:12:30.662Z,2670
2018-03-14T13:13:30.433Z,2415
2018-03-14T13:14:30.457Z,2740
2018-03-14T13:15:30.518Z,2700
2018-03-14T13:16:30.792Z,1550
2018-03-14T13:17:30.562Z,2470
2018-03-14T13:18:30.855Z,1985
2018-03-14T13:19:30.613Z,2730
2018-03-14T13:20:30.407Z,1175
2018-03-14T13:21:30.933Z,2290
2018-03-14T13:22:31.018Z,870
2018-03-14T13:23:30.734Z,575
2018-03-14T13:24:30.507Z,500
2018-03-14T13:25:30.282Z,410
2018-03-14T13:26:30.559Z,365
2018-03-14T13:27:30.327Z,350
2018-03-14T13:28:31.123Z,350
2018-03-14T13:29:30.363Z,345
2018-03-14T13:30:30.677Z,335
2018-03-14T13:31:31.176Z,310
2018-03-14T13:32:31.200Z,290
2018-03-14T13:33:31.226Z,290
2018-03-14T13:34:30.777Z,295
2018-03-14T13:35:30.806Z,295
2018-03-14T13:36:31.101Z,285
2018-03-14T13:37:31.158Z,275
2018-03-14T13:38:31.102Z,275
2018-03-14T13:39:30.875Z,290
2018-03-14T13:40:31.161Z,315
2018-03-14T13:41:31.181Z,360
2018-03-14T13:42:31.461Z,425
2018-03-14T13:43:31.485Z,585
2018-03-14T13:44:31.020Z,3195
2018-03-14T13:45:31.303Z,3210
2018-03-14T13:46:31.323Z,3155
2018-03-14T13:47:31.166Z,3035
2018-03-14T13:48:31.368Z,3190
2018-03-14T13:49:31.132Z,3100
2018-03-14T13:50:31.417Z,3010
2018-03-14T13:51:31.442Z,2960
2018-03-14T13:52:31.217Z,2955
2018-03-14T13:53:31.246Z,2970
2018-03-14T13:54:31.322Z,3090
2018-03-14T13:55:31.576Z,3320
2018-03-14T13:56:31.325Z,3150
2018-03-14T13:57:31.626Z,3420
2018-03-14T13:58:32.009Z,3455
2018-03-14T13:59:31.408Z,3245
2018-03-14T14:00:31.946Z,3050
2018-03-14T14:01:31.983Z,3240
2018-03-14T14:02:31.750Z,1895
2018-03-14T14:03:31.796Z,1830
2018-03-14T14:04:31.579Z,690
2018-03-14T14:05:32.112Z,585
2018-03-14T14:06:31.875Z,395
2018-03-14T14:07:31.937Z,335
2018-03-14T14:08:31.685Z,310
2018-03-14T14:09:31.969Z,300
2018-03-14T14:10:32.245Z,305
2018-03-14T14:11:32.270Z,305
2018-03-14T14:12:32.097Z,320
2018-03-14T14:13:31.823Z,335
2018-03-14T14:14:32.113Z,355